Terminal Aerodrome Forecast
Issued by NWS

Home | Current Version | Previous Version | Text Only | Print | Product List | Glossary On
Versions: 1 2 3 4 5 6 7 8 9 10 11 12 13 14 15 16 17 18 19 20 21
000
FTAK31 PANC 211720
TAFAEN
TAF
PAEN 211720Z 2118/2218 05004KT P6SM SKC
     FM220600 02010G18KT 4SM -SN BKN030 OVC050
     FM221000 01015G22KT 1SM -SN BKN008 OVC015
     FM221600 07007KT 5SM -SHSN BKN015 OVC025=

USA.gov is the U.S. government's official web portal to all federal, state and local government web resources and services.